Terminal Aerodrome Forecast
Issued by NWS

Home | Current Version | Previous Version | Text Only | Print | Product List | Glossary On
Versions: 1 2 3 4 5 6 7 8 9 10 11 12 13 14 15 16 17 18
000
FTUS43 KMPX 231100
TAFRNH
TAF
KRNH 231124Z 2312/2412 18004KT 6SM BR SCT007 OVC012
      TEMPO 2312/2314 BKN007
     FM231400 20005KT P6SM SCT009 BKN015
     FM231700 23005KT P6SM SCT020
     FM231800 24006KT P6SM SKC
     FM240100 19003KT P6SM SKC
     FM240700 19004KT 4SM BR FEW250=

USA.gov is the U.S. government's official web portal to all federal, state and local government web resources and services.